首页
METAR-TAF:

METAR-TAF

机场 :

General Wayne Downing Peoria International Airport

皮奥里亚, 伊利诺伊州, 美国

纬度: 40-40-03N, 经度: 089-41-02W, 海拔: 201米

当前天气观测

该预报发布于46分钟前的06:54 UTC
风速5节,风向
温度 1°C
湿度 75%
气压 1022 hPa
能見度: 12.9公里
天空无云

METAR: KPIA 170654Z 17005KT 8SM CLR 01/M03 A3017 RMK AO2 SLP220 T00061028 $

时间: 01:40 (07:40 UTC)

预报

该预报发布于2小时和20分钟前的05:20 UTC
预报有效从17日的 06点(UTC)到 18日的 06点(UTC)
风速7节,风向南转南东
能見度: 10公里
散云层高于25000英尺
从 17日的 1600点(UTC)
风速7节,风向
能見度: 10公里
阴天层高于10000英尺
附近有阵雨
从 17日的 2100点(UTC)
风速6节,风向南转西南
能見度: 8.0公里
阴天层高于3500英尺
小雨
从 17日的 2300点(UTC)
风速4节,风向多变
能見度: 6.4公里
阴天层高于1500英尺
小雨, 轻雾
从 18日的 0300点(UTC)
风速5节,风向西转西北
能見度: 10公里
阴天层高于1500英尺

TAF: KPIA 170520Z 1706/1806 15007KT P6SM SCT250 FM171600 18007KT P6SM VCSH OVC100 FM172100 20006KT 5SM -RA OVC035 FM172300 VRB04KT 4SM -RA BR OVC015 FM180300 30005KT P6SM OVC015

超过4000个机场的气象观测和天气预报(METAR&TAF报告)。

可查询的气象台以黄色和红色小点在地图上表示。

将鼠标移到小点上方,可查看气象台名称。

然后点击查看天气观测和预报。

如需切换地图:点击带黑十字的绿色按钮放大地图;点击带横线的绿色按钮缩小地图;或者点击绿色箭头查看邻近地区的地图。


METAR-TAF: